Hauptseite
METAR-TAF:

METAR-TAF

Flughäfen :

Memmingen, Deutschland

Breite: 47-59-33N, Länge: 10-14-37E, Höhe: 633 m

Beobachtung

Neuester Wetterbericht von vor 6 Stunden und 42 Minuten, um 21:20 UTC
Wind 5 kt aus Ost/Südost, variierte zwischen Ost und Süd/Südost
Temperatur 3°C
Luftfeuchtigkeit 100%
Luftdruck 1026 hPa
Sichtweite: 9000 m
Durchbrochene Bewölkung in der Höhe von 400 ft

METAR: EDJA 152120Z 12005KT 100V160 9000 BKN004 03/03 Q1026

Zeit: 05:02 (04:02 UTC)

Prognose

Neuester Wetterbericht von vor 11 Stunden und 2 Minuten, um 17:00 UTC
Gültige Prognose vom 15 um 18 UTC bis 16 um 03 UTC
Wind 5 kt aus Ost
Sichtweite: 4000 m
Geschlossene Wolkendecke in der Höhe von 200 ft
feuchter Dunst
Übergehend zu
vom 15 um 20 UTC bis 15 um 23 UTC
Sichtweite: 0800 m
Durchbrochene Bewölkung in der Höhe von 100 ft
Nebel

TAF: EDJA 151700Z 1518/1603 09005KT 4000 BR OVC002 BECMG 1520/1523 0800 FG BKN001

Wetterbeobachtungen und Prognosen von mehr als 4000 Flughäfen (METAR und TAF Bericht).

Die verfügbaren Stationen werden durch gelbe und rote Markierungen auf der Karte dargestellt.

Führen Sie die Maus auf sie, um den Namen der Station zu sehen.

Darauf klicken, um die Beobachtung von Wetterbeobachtungen und Prognosen zu sehen.

Um die Karte zu ändern : klicken Sie auf den grünen Tasten mit einem schwarzen Kreuz Zum Vergrößern, auf den grünen Button mit einem Gedankenstrich zu verkleinern, oder auf die grünen Pfeile für benachbarte Karten.


METAR-TAF: